sensor_id;sensor_type;location;lat;lon;timestamp;P1;durP1;ratioP1;P2;durP2;ratioP2
49582;SDS011;36329;48.816;44.624;2023-07-13T00:01:08;1.9;;;1.2;;
49582;SDS011;36329;48.816;44.624;2023-07-13T00:04:10;1.3;;;1.1;;
49582;SDS011;36329;48.816;44.624;2023-07-13T00:07:12;1.6;;;1.2;;
49582;SDS011;36329;48.816;44.624;2023-07-13T00:10:15;1.3;;;1.1;;
49582;SDS011;36329;48.816;44.624;2023-07-13T00:13:17;2.4;;;1.3;;
49582;SDS011;36329;48.816;44.624;2023-07-13T00:16:19;1.9;;;1.3;;
49582;SDS011;36329;48.816;44.624;2023-07-13T00:19:21;1.4;;;1.1;;
49582;SDS011;36329;48.816;44.624;2023-07-13T00:22:24;2.5;;;1.2;;
49582;SDS011;36329;48.816;44.624;2023-07-13T00:25:28;2.4;;;1.4;;
49582;SDS011;36329;48.816;44.624;2023-07-13T00:28:30;2.4;;;1.3;;
49582;SDS011;36329;48.816;44.624;2023-07-13T00:31:32;2.6;;;1.3;;
49582;SDS011;36329;48.816;44.624;2023-07-13T00:34:34;2.9;;;1.3;;
49582;SDS011;36329;48.816;44.624;2023-07-13T00:37:36;3.1;;;1.4;;
49582;SDS011;36329;48.816;44.624;2023-07-13T00:40:38;2.9;;;1.4;;
49582;SDS011;36329;48.816;44.624;2023-07-13T00:43:40;2;;;1.2;;
49582;SDS011;36329;48.816;44.624;2023-07-13T00:46:42;2.4;;;1.3;;
49582;SDS011;36329;48.816;44.624;2023-07-13T00:49:44;3;;;1.4;;
49582;SDS011;36329;48.816;44.624;2023-07-13T00:52:50;1.6;;;1.3;;
49582;SDS011;36329;48.816;44.624;2023-07-13T00:55:55;2.7;;;1.4;;
49582;SDS011;36329;48.816;44.624;2023-07-13T00:58:59;3.3;;;1.2;;
49582;SDS011;36329;48.816;44.624;2023-07-13T01:02:04;2.7;;;1.1;;
49582;SDS011;36329;48.816;44.624;2023-07-13T01:05:08;1.5;;;1.3;;
49582;SDS011;36329;48.816;44.624;2023-07-13T01:08:11;2.3;;;1.4;;
49582;SDS011;36329;48.816;44.624;2023-07-13T01:11:13;2.4;;;1.2;;
49582;SDS011;36329;48.816;44.624;2023-07-13T01:14:20;3.5;;;1.4;;
49582;SDS011;36329;48.816;44.624;2023-07-13T01:17:22;2.2;;;1.3;;
49582;SDS011;36329;48.816;44.624;2023-07-13T01:20:24;3.1;;;1.3;;
49582;SDS011;36329;48.816;44.624;2023-07-13T01:23:27;3.8;;;1.2;;
49582;SDS011;36329;48.816;44.624;2023-07-13T01:26:30;3;;;1.6;;
49582;SDS011;36329;48.816;44.624;2023-07-13T01:29:32;6.2;;;2.3;;
49582;SDS011;36329;48.816;44.624;2023-07-13T01:32:36;8;;;3;;
49582;SDS011;36329;48.816;44.624;2023-07-13T01:35:38;11.8;;;4;;
49582;SDS011;36329;48.816;44.624;2023-07-13T01:38:41;8.7;;;3.5;;
49582;SDS011;36329;48.816;44.624;2023-07-13T01:41:43;9.7;;;3;;
49582;SDS011;36329;48.816;44.624;2023-07-13T01:44:44;5.3;;;2.3;;
49582;SDS011;36329;48.816;44.624;2023-07-13T01:47:46;4.5;;;2;;
49582;SDS011;36329;48.816;44.624;2023-07-13T01:50:48;3;;;1.3;;
49582;SDS011;36329;48.816;44.624;2023-07-13T01:53:50;2.8;;;1.4;;
49582;SDS011;36329;48.816;44.624;2023-07-13T01:56:52;2.3;;;1.3;;
49582;SDS011;36329;48.816;44.624;2023-07-13T01:59:54;2.7;;;1.3;;
49582;SDS011;36329;48.816;44.624;2023-07-13T02:02:56;3.7;;;1.3;;
49582;SDS011;36329;48.816;44.624;2023-07-13T02:05:58;2.9;;;1.4;;
49582;SDS011;36329;48.816;44.624;2023-07-13T02:09:00;3.1;;;1.4;;
49582;SDS011;36329;48.816;44.624;2023-07-13T02:12:02;2.9;;;1.2;;
49582;SDS011;36329;48.816;44.624;2023-07-13T02:15:05;3.2;;;1.4;;
49582;SDS011;36329;48.816;44.624;2023-07-13T02:18:09;2.8;;;1.3;;
49582;SDS011;36329;48.816;44.624;2023-07-13T02:21:26;3.6;;;1.6;;
49582;SDS011;36329;48.816;44.624;2023-07-13T02:24:28;5.1;;;1.6;;
49582;SDS011;36329;48.816;44.624;2023-07-13T02:27:30;3;;;1.4;;
49582;SDS011;36329;48.816;44.624;2023-07-13T02:30:33;2.2;;;1.3;;
49582;SDS011;36329;48.816;44.624;2023-07-13T02:33:36;3;;;1.4;;
49582;SDS011;36329;48.816;44.624;2023-07-13T02:36:38;2.3;;;1.5;;
49582;SDS011;36329;48.816;44.624;2023-07-13T02:39:40;2.7;;;1.4;;
49582;SDS011;36329;48.816;44.624;2023-07-13T02:42:42;3;;;1.4;;
49582;SDS011;36329;48.816;44.624;2023-07-13T02:45:44;4.8;;;1.5;;
49582;SDS011;36329;48.816;44.624;2023-07-13T02:48:46;3.4;;;1.5;;
49582;SDS011;36329;48.816;44.624;2023-07-13T02:51:48;3.4;;;1.5;;
49582;SDS011;36329;48.816;44.624;2023-07-13T02:54:50;3.2;;;1.6;;
49582;SDS011;36329;48.816;44.624;2023-07-13T02:57:52;3.7;;;1.6;;
49582;SDS011;36329;48.816;44.624;2023-07-13T03:00:55;1.8;;;1.4;;
49582;SDS011;36329;48.816;44.624;2023-07-13T03:03:57;1.9;;;1.5;;
49582;SDS011;36329;48.816;44.624;2023-07-13T03:06:59;3;;;1.5;;
49582;SDS011;36329;48.816;44.624;2023-07-13T03:10:01;2.6;;;1.4;;
49582;SDS011;36329;48.816;44.624;2023-07-13T03:13:05;3.5;;;1.3;;
49582;SDS011;36329;48.816;44.624;2023-07-13T03:16:07;3.1;;;1.5;;
49582;SDS011;36329;48.816;44.624;2023-07-13T03:19:10;4.6;;;1.6;;
49582;SDS011;36329;48.816;44.624;2023-07-13T03:22:12;2.6;;;1.5;;
49582;SDS011;36329;48.816;44.624;2023-07-13T03:25:14;2.8;;;1.4;;
49582;SDS011;36329;48.816;44.624;2023-07-13T03:28:16;3.3;;;1.6;;
49582;SDS011;36329;48.816;44.624;2023-07-13T03:31:19;5.9;;;1.6;;
49582;SDS011;36329;48.816;44.624;2023-07-13T03:34:22;2.7;;;1.6;;
49582;SDS011;36329;48.816;44.624;2023-07-13T03:37:24;5.6;;;1.7;;
49582;SDS011;36329;48.816;44.624;2023-07-13T03:40:26;4;;;1.7;;
49582;SDS011;36329;48.816;44.624;2023-07-13T03:43:29;3;;;1.5;;
49582;SDS011;36329;48.816;44.624;2023-07-13T03:46:31;2;;;1.6;;
49582;SDS011;36329;48.816;44.624;2023-07-13T03:49:33;3.9;;;1.6;;
49582;SDS011;36329;48.816;44.624;2023-07-13T03:52:35;7.9;;;1.6;;
49582;SDS011;36329;48.816;44.624;2023-07-13T03:55:37;4.3;;;1.6;;
49582;SDS011;36329;48.816;44.624;2023-07-13T03:58:39;3;;;1.6;;
49582;SDS011;36329;48.816;44.624;2023-07-13T04:01:43;4.9;;;1.5;;
49582;SDS011;36329;48.816;44.624;2023-07-13T04:04:45;3.5;;;1.6;;
49582;SDS011;36329;48.816;44.624;2023-07-13T04:07:47;3;;;1.5;;
49582;SDS011;36329;48.816;44.624;2023-07-13T04:10:49;4.1;;;1.6;;
49582;SDS011;36329;48.816;44.624;2023-07-13T04:13:52;2.9;;;1.4;;
49582;SDS011;36329;48.816;44.624;2023-07-13T04:16:54;5.5;;;1.5;;
49582;SDS011;36329;48.816;44.624;2023-07-13T04:19:56;5.9;;;2.1;;
49582;SDS011;36329;48.816;44.624;2023-07-13T04:22:59;4.5;;;1.7;;
49582;SDS011;36329;48.816;44.624;2023-07-13T04:26:01;3.6;;;1.8;;
49582;SDS011;36329;48.816;44.624;2023-07-13T04:29:03;7.3;;;3.5;;
49582;SDS011;36329;48.816;44.624;2023-07-13T04:32:05;6.3;;;2;;
49582;SDS011;36329;48.816;44.624;2023-07-13T04:35:07;9.8;;;4;;
49582;SDS011;36329;48.816;44.624;2023-07-13T04:38:10;6.1;;;2.7;;
49582;SDS011;36329;48.816;44.624;2023-07-13T04:41:13;8.5;;;2.5;;
49582;SDS011;36329;48.816;44.624;2023-07-13T04:44:15;7.5;;;2.6;;
49582;SDS011;36329;48.816;44.624;2023-07-13T04:47:17;4.4;;;2.6;;
49582;SDS011;36329;48.816;44.624;2023-07-13T04:50:20;3.7;;;2;;
49582;SDS011;36329;48.816;44.624;2023-07-13T04:53:22;7.8;;;2.4;;
49582;SDS011;36329;48.816;44.624;2023-07-13T04:56:25;5.1;;;2.2;;
49582;SDS011;36329;48.816;44.624;2023-07-13T04:59:26;3.5;;;1.9;;
49582;SDS011;36329;48.816;44.624;2023-07-13T05:02:28;6.1;;;2;;
49582;SDS011;36329;48.816;44.624;2023-07-13T05:05:31;4.9;;;1.8;;
49582;SDS011;36329;48.816;44.624;2023-07-13T05:08:33;2.7;;;1.6;;
49582;SDS011;36329;48.816;44.624;2023-07-13T05:11:35;4.3;;;1.7;;
49582;SDS011;36329;48.816;44.624;2023-07-13T05:14:37;3.7;;;1.8;;
49582;SDS011;36329;48.816;44.624;2023-07-13T05:17:39;4.4;;;1.7;;
49582;SDS011;36329;48.816;44.624;2023-07-13T05:20:41;3.7;;;1.7;;
49582;SDS011;36329;48.816;44.624;2023-07-13T05:23:43;2.8;;;1.5;;
49582;SDS011;36329;48.816;44.624;2023-07-13T05:26:46;4;;;1.5;;
49582;SDS011;36329;48.816;44.624;2023-07-13T05:29:48;3.9;;;1.5;;
49582;SDS011;36329;48.816;44.624;2023-07-13T05:32:50;4;;;1.7;;
49582;SDS011;36329;48.816;44.624;2023-07-13T05:35:52;3.2;;;1.4;;
49582;SDS011;36329;48.816;44.624;2023-07-13T05:38:54;2.5;;;1.4;;
49582;SDS011;36329;48.816;44.624;2023-07-13T05:41:56;3.4;;;1.4;;
49582;SDS011;36329;48.816;44.624;2023-07-13T05:44:58;5.8;;;1.7;;
49582;SDS011;36329;48.816;44.624;2023-07-13T05:48:00;6.2;;;2;;
49582;SDS011;36329;48.816;44.624;2023-07-13T05:51:02;3.6;;;1.4;;
49582;SDS011;36329;48.816;44.624;2023-07-13T05:54:04;5.6;;;1.3;;
49582;SDS011;36329;48.816;44.624;2023-07-13T05:57:06;3.3;;;1.5;;
49582;SDS011;36329;48.816;44.624;2023-07-13T06:00:08;6.9;;;2;;
49582;SDS011;36329;48.816;44.624;2023-07-13T06:03:10;5.8;;;1.7;;
49582;SDS011;36329;48.816;44.624;2023-07-13T06:06:12;11.4;;;1.7;;
49582;SDS011;36329;48.816;44.624;2023-07-13T06:09:14;4.2;;;1.3;;
49582;SDS011;36329;48.816;44.624;2023-07-13T06:12:16;8.9;;;2;;
49582;SDS011;36329;48.816;44.624;2023-07-13T06:15:19;6.3;;;1.7;;
49582;SDS011;36329;48.816;44.624;2023-07-13T06:18:21;3.8;;;1.6;;
49582;SDS011;36329;48.816;44.624;2023-07-13T06:21:24;5.2;;;1.6;;
49582;SDS011;36329;48.816;44.624;2023-07-13T06:24:26;3.3;;;1.6;;
49582;SDS011;36329;48.816;44.624;2023-07-13T06:27:29;3.2;;;1.5;;
49582;SDS011;36329;48.816;44.624;2023-07-13T06:30:30;2.9;;;1.5;;
49582;SDS011;36329;48.816;44.624;2023-07-13T06:33:33;5.3;;;1.8;;
49582;SDS011;36329;48.816;44.624;2023-07-13T06:36:35;6.8;;;1.7;;
49582;SDS011;36329;48.816;44.624;2023-07-13T06:39:37;2.8;;;1.5;;
49582;SDS011;36329;48.816;44.624;2023-07-13T06:42:39;8.3;;;2;;
49582;SDS011;36329;48.816;44.624;2023-07-13T06:45:41;6;;;1.7;;
49582;SDS011;36329;48.816;44.624;2023-07-13T06:48:45;3.8;;;1.4;;
49582;SDS011;36329;48.816;44.624;2023-07-13T06:51:47;5.5;;;1.5;;
49582;SDS011;36329;48.816;44.624;2023-07-13T06:54:49;3.7;;;1.4;;
49582;SDS011;36329;48.816;44.624;2023-07-13T06:57:51;4.6;;;1.4;;
49582;SDS011;36329;48.816;44.624;2023-07-13T07:00:54;2.8;;;1.4;;
49582;SDS011;36329;48.816;44.624;2023-07-13T07:03:56;4.9;;;1.6;;
49582;SDS011;36329;48.816;44.624;2023-07-13T07:06:58;3.1;;;1.6;;
49582;SDS011;36329;48.816;44.624;2023-07-13T07:10:00;6.4;;;1.5;;
49582;SDS011;36329;48.816;44.624;2023-07-13T07:13:02;7;;;1.5;;
49582;SDS011;36329;48.816;44.624;2023-07-13T07:16:05;3.7;;;1.2;;
49582;SDS011;36329;48.816;44.624;2023-07-13T07:19:07;7.8;;;1.5;;
49582;SDS011;36329;48.816;44.624;2023-07-13T07:22:08;4.7;;;1.5;;
49582;SDS011;36329;48.816;44.624;2023-07-13T07:25:10;9.4;;;1.6;;
49582;SDS011;36329;48.816;44.624;2023-07-13T07:28:14;5.6;;;1.6;;
49582;SDS011;36329;48.816;44.624;2023-07-13T07:31:17;8.5;;;1.6;;
49582;SDS011;36329;48.816;44.624;2023-07-13T07:34:19;4.9;;;1.6;;
49582;SDS011;36329;48.816;44.624;2023-07-13T07:37:21;3.3;;;1.8;;
49582;SDS011;36329;48.816;44.624;2023-07-13T07:40:23;6.8;;;1.6;;
49582;SDS011;36329;48.816;44.624;2023-07-13T07:43:25;4.5;;;1.5;;
49582;SDS011;36329;48.816;44.624;2023-07-13T07:46:27;5.1;;;1.7;;
49582;SDS011;36329;48.816;44.624;2023-07-13T07:49:29;5.9;;;1.4;;
49582;SDS011;36329;48.816;44.624;2023-07-13T07:52:31;5.4;;;1.7;;
49582;SDS011;36329;48.816;44.624;2023-07-13T07:55:34;8.8;;;1.6;;
49582;SDS011;36329;48.816;44.624;2023-07-13T07:58:36;5.3;;;1.3;;
49582;SDS011;36329;48.816;44.624;2023-07-13T08:01:37;6.8;;;1.7;;
49582;SDS011;36329;48.816;44.624;2023-07-13T08:04:40;7.9;;;2.1;;
49582;SDS011;36329;48.816;44.624;2023-07-13T08:07:42;4.3;;;1.4;;
49582;SDS011;36329;48.816;44.624;2023-07-13T08:10:44;5.4;;;2.4;;
49582;SDS011;36329;48.816;44.624;2023-07-13T08:13:45;2.1;;;1.4;;
49582;SDS011;36329;48.816;44.624;2023-07-13T08:16:47;6.6;;;1.6;;
49582;SDS011;36329;48.816;44.624;2023-07-13T08:19:49;5.6;;;1.7;;
49582;SDS011;36329;48.816;44.624;2023-07-13T08:22:52;6.4;;;1.5;;
49582;SDS011;36329;48.816;44.624;2023-07-13T08:25:54;7.3;;;1.8;;
49582;SDS011;36329;48.816;44.624;2023-07-13T08:28:56;6.8;;;1.2;;
49582;SDS011;36329;48.816;44.624;2023-07-13T08:31:59;15.6;;;1.7;;
49582;SDS011;36329;48.816;44.624;2023-07-13T08:35:01;6;;;1.1;;
49582;SDS011;36329;48.816;44.624;2023-07-13T08:38:05;4.7;;;1.7;;
49582;SDS011;36329;48.816;44.624;2023-07-13T08:41:11;6.7;;;2.1;;
49582;SDS011;36329;48.816;44.624;2023-07-13T08:44:17;5.4;;;1.3;;
49582;SDS011;36329;48.816;44.624;2023-07-13T08:47:26;3.6;;;1.2;;
49582;SDS011;36329;48.816;44.624;2023-07-13T08:50:35;5.6;;;1.3;;
49582;SDS011;36329;48.816;44.624;2023-07-13T08:53:46;6;;;1.4;;
49582;SDS011;36329;48.816;44.624;2023-07-13T08:56:50;6.1;;;1.7;;
49582;SDS011;36329;48.816;44.624;2023-07-13T08:59:55;6.3;;;1.4;;
49582;SDS011;36329;48.816;44.624;2023-07-13T09:02:57;4;;;1.3;;
49582;SDS011;36329;48.816;44.624;2023-07-13T09:06:03;3.7;;;1.1;;
49582;SDS011;36329;48.816;44.624;2023-07-13T09:09:06;6.9;;;1.3;;
49582;SDS011;36329;48.816;44.624;2023-07-13T09:12:17;4.6;;;1.2;;
49582;SDS011;36329;48.816;44.624;2023-07-13T09:15:26;4;;;1;;
49582;SDS011;36329;48.816;44.624;2023-07-13T09:18:32;3.8;;;1.1;;
49582;SDS011;36329;48.816;44.624;2023-07-13T09:21:37;5.7;;;1.1;;
49582;SDS011;36329;48.816;44.624;2023-07-13T09:24:48;5.6;;;1.5;;
49582;SDS011;36329;48.816;44.624;2023-07-13T09:27:55;5.9;;;1.6;;
49582;SDS011;36329;48.816;44.624;2023-07-13T09:31:01;7.4;;;1.4;;
49582;SDS011;36329;48.816;44.624;2023-07-13T09:34:08;6.3;;;1.3;;
49582;SDS011;36329;48.816;44.624;2023-07-13T09:37:11;10.3;;;1.6;;
49582;SDS011;36329;48.816;44.624;2023-07-13T09:40:15;10.1;;;1.3;;
49582;SDS011;36329;48.816;44.624;2023-07-13T09:43:30;3;;;1.3;;
49582;SDS011;36329;48.816;44.624;2023-07-13T09:46:32;7;;;1.2;;
49582;SDS011;36329;48.816;44.624;2023-07-13T09:49:35;4.4;;;1.3;;
49582;SDS011;36329;48.816;44.624;2023-07-13T09:52:40;11.7;;;1;;
49582;SDS011;36329;48.816;44.624;2023-07-13T09:55:45;7.7;;;0.9;;
49582;SDS011;36329;48.816;44.624;2023-07-13T09:58:49;4.3;;;0.8;;
49582;SDS011;36329;48.816;44.624;2023-07-13T10:01:51;3;;;1;;
49582;SDS011;36329;48.816;44.624;2023-07-13T10:04:56;6.9;;;1.1;;
49582;SDS011;36329;48.816;44.624;2023-07-13T10:08:00;3.6;;;1;;
49582;SDS011;36329;48.816;44.624;2023-07-13T10:11:09;9.1;;;1.1;;
49582;SDS011;36329;48.816;44.624;2023-07-13T10:14:14;7.4;;;1;;
49582;SDS011;36329;48.816;44.624;2023-07-13T10:17:23;9.6;;;1.2;;
49582;SDS011;36329;48.816;44.624;2023-07-13T10:20:28;4.7;;;0.9;;
49582;SDS011;36329;48.816;44.624;2023-07-13T10:23:32;4.6;;;1;;
49582;SDS011;36329;48.816;44.624;2023-07-13T10:26:36;2.4;;;0.7;;
49582;SDS011;36329;48.816;44.624;2023-07-13T10:29:47;3.8;;;1;;
49582;SDS011;36329;48.816;44.624;2023-07-13T10:32:51;7.9;;;1.1;;
49582;SDS011;36329;48.816;44.624;2023-07-13T10:35:55;8;;;1.4;;
49582;SDS011;36329;48.816;44.624;2023-07-13T10:39:09;12.1;;;1.6;;
49582;SDS011;36329;48.816;44.624;2023-07-13T10:42:18;4.8;;;1.5;;
49582;SDS011;36329;48.816;44.624;2023-07-13T10:45:29;9.8;;;1.5;;
49582;SDS011;36329;48.816;44.624;2023-07-13T10:48:36;5.2;;;1.2;;
49582;SDS011;36329;48.816;44.624;2023-07-13T10:51:40;19;;;1.4;;
49582;SDS011;36329;48.816;44.624;2023-07-13T10:54:42;11.1;;;1.6;;
49582;SDS011;36329;48.816;44.624;2023-07-13T10:57:44;6.4;;;1.4;;
49582;SDS011;36329;48.816;44.624;2023-07-13T11:00:47;14.4;;;1.9;;
49582;SDS011;36329;48.816;44.624;2023-07-13T11:03:55;3.3;;;1.1;;
49582;SDS011;36329;48.816;44.624;2023-07-13T11:07:18;10.6;;;1.8;;
49582;SDS011;36329;48.816;44.624;2023-07-13T11:13:57;4.6;;;1.2;;
49582;SDS011;36329;48.816;44.624;2023-07-13T11:17:03;7.2;;;1.4;;
49582;SDS011;36329;48.816;44.624;2023-07-13T11:20:34;6;;;1.3;;
49582;SDS011;36329;48.816;44.624;2023-07-13T11:23:41;6.6;;;1.6;;
49582;SDS011;36329;48.816;44.624;2023-07-13T11:26:50;2.7;;;1.5;;
49582;SDS011;36329;48.816;44.624;2023-07-13T11:29:57;12.4;;;1.4;;
49582;SDS011;36329;48.816;44.624;2023-07-13T11:33:13;3.4;;;1;;
49582;SDS011;36329;48.816;44.624;2023-07-13T11:36:18;4.5;;;1.1;;
49582;SDS011;36329;48.816;44.624;2023-07-13T11:39:23;11.3;;;1.5;;
49582;SDS011;36329;48.816;44.624;2023-07-13T11:42:30;2.8;;;1.2;;
49582;SDS011;36329;48.816;44.624;2023-07-13T11:45:32;3.6;;;0.9;;
49582;SDS011;36329;48.816;44.624;2023-07-13T11:48:34;2.1;;;1;;
49582;SDS011;36329;48.816;44.624;2023-07-13T11:51:36;6.6;;;1.4;;
49582;SDS011;36329;48.816;44.624;2023-07-13T11:54:43;1.8;;;1;;
49582;SDS011;36329;48.816;44.624;2023-07-13T11:57:50;8.2;;;1.5;;
49582;SDS011;36329;48.816;44.624;2023-07-13T12:00:56;6.7;;;1.4;;
49582;SDS011;36329;48.816;44.624;2023-07-13T12:04:02;5.1;;;1.4;;
49582;SDS011;36329;48.816;44.624;2023-07-13T12:07:06;4.1;;;1.2;;
49582;SDS011;36329;48.816;44.624;2023-07-13T12:10:18;5.7;;;1.2;;
49582;SDS011;36329;48.816;44.624;2023-07-13T12:13:22;6.6;;;1.6;;
49582;SDS011;36329;48.816;44.624;2023-07-13T12:16:26;6.7;;;1.3;;
49582;SDS011;36329;48.816;44.624;2023-07-13T12:19:30;3.8;;;1.3;;
49582;SDS011;36329;48.816;44.624;2023-07-13T12:22:32;4.4;;;1.1;;
49582;SDS011;36329;48.816;44.624;2023-07-13T12:25:34;2.7;;;0.9;;
49582;SDS011;36329;48.816;44.624;2023-07-13T12:28:37;3.4;;;1.2;;
49582;SDS011;36329;48.816;44.624;2023-07-13T12:31:46;5;;;1.9;;
49582;SDS011;36329;48.816;44.624;2023-07-13T12:34:51;4.7;;;1.2;;
49582;SDS011;36329;48.816;44.624;2023-07-13T12:37:54;3.1;;;2;;
49582;SDS011;36329;48.816;44.624;2023-07-13T12:40:58;4.2;;;1.7;;
49582;SDS011;36329;48.816;44.624;2023-07-13T12:44:03;4;;;1.2;;
49582;SDS011;36329;48.816;44.624;2023-07-13T12:47:09;4;;;1.6;;
49582;SDS011;36329;48.816;44.624;2023-07-13T12:50:16;9;;;1.8;;
49582;SDS011;36329;48.816;44.624;2023-07-13T12:53:20;4.9;;;1.3;;
49582;SDS011;36329;48.816;44.624;2023-07-13T12:56:24;7;;;1.4;;
49582;SDS011;36329;48.816;44.624;2023-07-13T12:59:29;6.4;;;1.4;;
49582;SDS011;36329;48.816;44.624;2023-07-13T13:02:34;7.2;;;1.3;;
49582;SDS011;36329;48.816;44.624;2023-07-13T13:05:36;4.3;;;1.5;;
49582;SDS011;36329;48.816;44.624;2023-07-13T13:08:38;4.7;;;1.4;;
49582;SDS011;36329;48.816;44.624;2023-07-13T13:11:40;6.6;;;1.5;;
49582;SDS011;36329;48.816;44.624;2023-07-13T13:14:43;6.5;;;1.7;;
49582;SDS011;36329;48.816;44.624;2023-07-13T13:17:45;4.4;;;1.3;;
49582;SDS011;36329;48.816;44.624;2023-07-13T13:20:47;6;;;1.8;;
49582;SDS011;36329;48.816;44.624;2023-07-13T13:23:50;6.1;;;1.7;;
49582;SDS011;36329;48.816;44.624;2023-07-13T13:26:53;3.5;;;1.3;;
49582;SDS011;36329;48.816;44.624;2023-07-13T13:29:57;2.3;;;1.6;;
49582;SDS011;36329;48.816;44.624;2023-07-13T13:32:59;4;;;1.5;;
49582;SDS011;36329;48.816;44.624;2023-07-13T13:36:01;10.3;;;1.7;;
49582;SDS011;36329;48.816;44.624;2023-07-13T13:39:05;5.9;;;1.4;;
49582;SDS011;36329;48.816;44.624;2023-07-13T13:42:12;6.3;;;1.8;;
49582;SDS011;36329;48.816;44.624;2023-07-13T13:45:14;3.4;;;1.4;;
49582;SDS011;36329;48.816;44.624;2023-07-13T13:48:17;4.8;;;1.5;;
49582;SDS011;36329;48.816;44.624;2023-07-13T13:51:21;7.8;;;1.6;;
49582;SDS011;36329;48.816;44.624;2023-07-13T13:54:25;6.8;;;1.6;;
49582;SDS011;36329;48.816;44.624;2023-07-13T13:57:27;6.5;;;1.6;;
49582;SDS011;36329;48.816;44.624;2023-07-13T14:00:30;8.2;;;2.1;;
49582;SDS011;36329;48.816;44.624;2023-07-13T14:03:31;6.8;;;2.1;;
49582;SDS011;36329;48.816;44.624;2023-07-13T14:06:33;8.1;;;1.9;;
49582;SDS011;36329;48.816;44.624;2023-07-13T14:09:36;7;;;1.8;;
49582;SDS011;36329;48.816;44.624;2023-07-13T14:12:38;5.6;;;1.6;;
49582;SDS011;36329;48.816;44.624;2023-07-13T14:15:40;8.4;;;2.1;;
49582;SDS011;36329;48.816;44.624;2023-07-13T14:18:42;5.7;;;2;;
49582;SDS011;36329;48.816;44.624;2023-07-13T14:21:44;4.2;;;1.6;;
49582;SDS011;36329;48.816;44.624;2023-07-13T14:24:46;4.8;;;2;;
49582;SDS011;36329;48.816;44.624;2023-07-13T14:27:49;6.6;;;2.1;;
49582;SDS011;36329;48.816;44.624;2023-07-13T14:30:55;8.3;;;2.5;;
49582;SDS011;36329;48.816;44.624;2023-07-13T14:33:57;5.2;;;2.1;;
49582;SDS011;36329;48.816;44.624;2023-07-13T14:36:59;4.4;;;2.2;;
49582;SDS011;36329;48.816;44.624;2023-07-13T14:40:01;5.3;;;2.1;;
49582;SDS011;36329;48.816;44.624;2023-07-13T14:43:07;8.1;;;2.6;;
49582;SDS011;36329;48.816;44.624;2023-07-13T14:46:15;5.9;;;1.9;;
49582;SDS011;36329;48.816;44.624;2023-07-13T14:49:24;2.9;;;1.4;;
49582;SDS011;36329;48.816;44.624;2023-07-13T14:52:31;4.1;;;1.4;;
49582;SDS011;36329;48.816;44.624;2023-07-13T14:55:34;7.4;;;1.7;;
49582;SDS011;36329;48.816;44.624;2023-07-13T14:58:36;3.5;;;1.5;;
49582;SDS011;36329;48.816;44.624;2023-07-13T15:01:37;5;;;1.5;;
49582;SDS011;36329;48.816;44.624;2023-07-13T15:04:40;6.2;;;2.1;;
49582;SDS011;36329;48.816;44.624;2023-07-13T15:07:43;5.5;;;1.6;;
49582;SDS011;36329;48.816;44.624;2023-07-13T15:10:45;6.4;;;1.9;;
49582;SDS011;36329;48.816;44.624;2023-07-13T15:13:47;4.1;;;1.3;;
49582;SDS011;36329;48.816;44.624;2023-07-13T15:16:51;6;;;1.5;;
49582;SDS011;36329;48.816;44.624;2023-07-13T15:19:57;4.2;;;1.5;;
49582;SDS011;36329;48.816;44.624;2023-07-13T15:23:00;4.9;;;1.8;;
49582;SDS011;36329;48.816;44.624;2023-07-13T15:26:02;3.1;;;1.7;;
49582;SDS011;36329;48.816;44.624;2023-07-13T15:29:04;4.4;;;1.3;;
49582;SDS011;36329;48.816;44.624;2023-07-13T15:32:10;6.8;;;2.1;;
49582;SDS011;36329;48.816;44.624;2023-07-13T15:35:15;3.2;;;1.9;;
49582;SDS011;36329;48.816;44.624;2023-07-13T15:38:19;6.7;;;2.4;;
49582;SDS011;36329;48.816;44.624;2023-07-13T15:41:28;5.6;;;2;;
49582;SDS011;36329;48.816;44.624;2023-07-13T15:44:31;4.2;;;1.9;;
49582;SDS011;36329;48.816;44.624;2023-07-13T15:47:34;8.9;;;2.7;;
49582;SDS011;36329;48.816;44.624;2023-07-13T15:50:40;4.7;;;2.3;;
49582;SDS011;36329;48.816;44.624;2023-07-13T15:53:46;5.5;;;2;;
49582;SDS011;36329;48.816;44.624;2023-07-13T15:56:51;5;;;1.8;;
49582;SDS011;36329;48.816;44.624;2023-07-13T15:59:55;6.4;;;1.5;;
49582;SDS011;36329;48.816;44.624;2023-07-13T16:02:57;7.3;;;1.8;;
49582;SDS011;36329;48.816;44.624;2023-07-13T16:05:59;5.3;;;2.2;;
49582;SDS011;36329;48.816;44.624;2023-07-13T16:09:01;4.8;;;2.1;;
49582;SDS011;36329;48.816;44.624;2023-07-13T16:12:08;8.3;;;2.3;;
49582;SDS011;36329;48.816;44.624;2023-07-13T16:15:12;10.4;;;2.9;;
49582;SDS011;36329;48.816;44.624;2023-07-13T16:18:15;7.7;;;2.8;;
49582;SDS011;36329;48.816;44.624;2023-07-13T16:21:17;9.2;;;2.8;;
49582;SDS011;36329;48.816;44.624;2023-07-13T16:24:20;5.2;;;2.4;;
49582;SDS011;36329;48.816;44.624;2023-07-13T16:27:24;5.9;;;2.3;;
49582;SDS011;36329;48.816;44.624;2023-07-13T16:30:27;8.5;;;2.4;;
49582;SDS011;36329;48.816;44.624;2023-07-13T16:33:30;8.4;;;2.1;;
49582;SDS011;36329;48.816;44.624;2023-07-13T16:36:32;6.5;;;1.9;;
49582;SDS011;36329;48.816;44.624;2023-07-13T16:39:34;6.2;;;2;;
49582;SDS011;36329;48.816;44.624;2023-07-13T16:42:36;6;;;1.9;;
49582;SDS011;36329;48.816;44.624;2023-07-13T16:45:38;4.3;;;2.2;;
49582;SDS011;36329;48.816;44.624;2023-07-13T16:48:41;5.2;;;2;;
49582;SDS011;36329;48.816;44.624;2023-07-13T16:51:43;5.6;;;2.1;;
49582;SDS011;36329;48.816;44.624;2023-07-13T16:54:45;6.7;;;1.9;;
49582;SDS011;36329;48.816;44.624;2023-07-13T16:57:48;8.9;;;2;;
49582;SDS011;36329;48.816;44.624;2023-07-13T17:00:50;10.4;;;2.1;;
49582;SDS011;36329;48.816;44.624;2023-07-13T17:03:53;5.3;;;2.1;;
49582;SDS011;36329;48.816;44.624;2023-07-13T17:06:55;6.8;;;2;;
49582;SDS011;36329;48.816;44.624;2023-07-13T17:09:58;4.5;;;1.8;;
49582;SDS011;36329;48.816;44.624;2023-07-13T17:13:00;6.3;;;2.1;;
49582;SDS011;36329;48.816;44.624;2023-07-13T17:16:04;5.1;;;2.1;;
49582;SDS011;36329;48.816;44.624;2023-07-13T17:19:10;4.4;;;2;;
49582;SDS011;36329;48.816;44.624;2023-07-13T17:22:13;6.4;;;2.1;;
49582;SDS011;36329;48.816;44.624;2023-07-13T17:25:15;6.6;;;2;;
49582;SDS011;36329;48.816;44.624;2023-07-13T17:28:17;9.5;;;2.5;;
49582;SDS011;36329;48.816;44.624;2023-07-13T17:31:20;11.4;;;2.2;;
49582;SDS011;36329;48.816;44.624;2023-07-13T17:34:23;7.2;;;2.3;;
49582;SDS011;36329;48.816;44.624;2023-07-13T17:37:25;7.6;;;2;;
49582;SDS011;36329;48.816;44.624;2023-07-13T17:40:27;6.7;;;2;;
49582;SDS011;36329;48.816;44.624;2023-07-13T17:43:29;6.6;;;2.4;;
49582;SDS011;36329;48.816;44.624;2023-07-13T17:46:33;6.1;;;2.1;;
49582;SDS011;36329;48.816;44.624;2023-07-13T17:49:36;7.9;;;2.3;;
49582;SDS011;36329;48.816;44.624;2023-07-13T17:52:38;4.9;;;1.9;;
49582;SDS011;36329;48.816;44.624;2023-07-13T17:55:40;7.9;;;2.4;;
49582;SDS011;36329;48.816;44.624;2023-07-13T17:58:42;9.2;;;2.3;;
49582;SDS011;36329;48.816;44.624;2023-07-13T18:01:46;6.6;;;2.1;;
49582;SDS011;36329;48.816;44.624;2023-07-13T18:04:48;8.8;;;2.2;;
49582;SDS011;36329;48.816;44.624;2023-07-13T18:07:51;5.3;;;2.4;;
49582;SDS011;36329;48.816;44.624;2023-07-13T18:10:54;6;;;2.5;;
49582;SDS011;36329;48.816;44.624;2023-07-13T18:13:57;8;;;2.8;;
49582;SDS011;36329;48.816;44.624;2023-07-13T18:17:00;8.2;;;2.7;;
49582;SDS011;36329;48.816;44.624;2023-07-13T18:20:02;7.8;;;2.6;;
49582;SDS011;36329;48.816;44.624;2023-07-13T18:23:07;5.7;;;2.6;;
49582;SDS011;36329;48.816;44.624;2023-07-13T18:26:16;8.9;;;2.6;;
49582;SDS011;36329;48.816;44.624;2023-07-13T18:29:19;9.4;;;3.1;;
49582;SDS011;36329;48.816;44.624;2023-07-13T18:32:22;6.9;;;3.5;;
49582;SDS011;36329;48.816;44.624;2023-07-13T18:35:26;9.7;;;3.4;;
49582;SDS011;36329;48.816;44.624;2023-07-13T18:38:32;14;;;3.4;;
49582;SDS011;36329;48.816;44.624;2023-07-13T18:41:34;11.7;;;3.5;;
49582;SDS011;36329;48.816;44.624;2023-07-13T18:44:36;6.8;;;3;;
49582;SDS011;36329;48.816;44.624;2023-07-13T18:47:38;10.8;;;3.5;;
49582;SDS011;36329;48.816;44.624;2023-07-13T18:50:40;11.7;;;3.2;;
49582;SDS011;36329;48.816;44.624;2023-07-13T18:53:42;12.1;;;3.2;;